sensor_id;sensor_type;location;lat;lon;timestamp;temperature;humidity
4376;DHT22;2202;50.866;12.750;2023-03-01T00:00:03;-3.70;87.80
4376;DHT22;2202;50.866;12.750;2023-03-01T00:02:29;-3.70;87.80
4376;DHT22;2202;50.866;12.750;2023-03-01T00:04:56;-3.70;87.80
4376;DHT22;2202;50.866;12.750;2023-03-01T00:07:23;-3.80;88.00
4376;DHT22;2202;50.866;12.750;2023-03-01T00:09:50;-3.80;88.20
4376;DHT22;2202;50.866;12.750;2023-03-01T00:12:18;-3.90;88.20
4376;DHT22;2202;50.866;12.750;2023-03-01T00:14:45;-3.90;88.40
4376;DHT22;2202;50.866;12.750;2023-03-01T00:17:12;-3.90;88.60
4376;DHT22;2202;50.866;12.750;2023-03-01T00:19:39;-3.90;89.00
4376;DHT22;2202;50.866;12.750;2023-03-01T00:22:06;-3.90;89.00
4376;DHT22;2202;50.866;12.750;2023-03-01T00:24:33;-4.00;89.20
4376;DHT22;2202;50.866;12.750;2023-03-01T00:27:00;-4.00;89.40
4376;DHT22;2202;50.866;12.750;2023-03-01T00:29:28;-4.00;89.40
4376;DHT22;2202;50.866;12.750;2023-03-01T00:31:55;-4.00;89.40
4376;DHT22;2202;50.866;12.750;2023-03-01T00:34:22;-4.00;89.60
4376;DHT22;2202;50.866;12.750;2023-03-01T00:36:49;-4.10;89.80
4376;DHT22;2202;50.866;12.750;2023-03-01T00:39:16;-4.10;90.00
4376;DHT22;2202;50.866;12.750;2023-03-01T00:41:43;-4.10;90.10
4376;DHT22;2202;50.866;12.750;2023-03-01T00:44:10;-4.10;90.30
4376;DHT22;2202;50.866;12.750;2023-03-01T00:46:38;-4.10;90.20
4376;DHT22;2202;50.866;12.750;2023-03-01T00:49:05;-4.10;90.20
4376;DHT22;2202;50.866;12.750;2023-03-01T00:51:32;-4.20;90.20
4376;DHT22;2202;50.866;12.750;2023-03-01T00:54:01;-4.20;90.20
4376;DHT22;2202;50.866;12.750;2023-03-01T00:56:29;-4.30;90.30
4376;DHT22;2202;50.866;12.750;2023-03-01T00:58:56;-4.30;90.30
4376;DHT22;2202;50.866;12.750;2023-03-01T01:01:25;-4.30;90.30
4376;DHT22;2202;50.866;12.750;2023-03-01T01:03:59;-4.30;90.30
4376;DHT22;2202;50.866;12.750;2023-03-01T01:06:28;-4.30;90.30
4376;DHT22;2202;50.866;12.750;2023-03-01T01:08:56;-4.30;90.40
4376;DHT22;2202;50.866;12.750;2023-03-01T01:11:24;-4.30;90.30
4376;DHT22;2202;50.866;12.750;2023-03-01T01:13:53;-4.40;90.40
4376;DHT22;2202;50.866;12.750;2023-03-01T01:16:22;-4.40;90.50
4376;DHT22;2202;50.866;12.750;2023-03-01T01:18:49;-4.40;90.60
4376;DHT22;2202;50.866;12.750;2023-03-01T01:21:20;-4.40;90.70
4376;DHT22;2202;50.866;12.750;2023-03-01T01:23:48;-4.40;90.60
4376;DHT22;2202;50.866;12.750;2023-03-01T01:26:17;-4.50;90.60
4376;DHT22;2202;50.866;12.750;2023-03-01T01:28:44;-4.50;90.60
4376;DHT22;2202;50.866;12.750;2023-03-01T01:31:11;-4.50;90.60
4376;DHT22;2202;50.866;12.750;2023-03-01T01:33:39;-4.50;90.50
4376;DHT22;2202;50.866;12.750;2023-03-01T01:36:07;-4.60;90.40
4376;DHT22;2202;50.866;12.750;2023-03-01T01:38:36;-4.60;90.50
4376;DHT22;2202;50.866;12.750;2023-03-01T01:41:04;-4.60;90.50
4376;DHT22;2202;50.866;12.750;2023-03-01T01:43:35;-4.60;90.50
4376;DHT22;2202;50.866;12.750;2023-03-01T01:46:04;-4.70;90.50
4376;DHT22;2202;50.866;12.750;2023-03-01T01:48:37;-4.70;90.50
4376;DHT22;2202;50.866;12.750;2023-03-01T01:51:09;-4.70;90.50
4376;DHT22;2202;50.866;12.750;2023-03-01T01:53:40;-4.70;90.50
4376;DHT22;2202;50.866;12.750;2023-03-01T01:56:10;-4.80;90.50
4376;DHT22;2202;50.866;12.750;2023-03-01T01:58:38;-4.80;90.50
4376;DHT22;2202;50.866;12.750;2023-03-01T02:01:06;-4.80;90.60
4376;DHT22;2202;50.866;12.750;2023-03-01T02:03:35;-4.80;90.70
4376;DHT22;2202;50.866;12.750;2023-03-01T02:06:12;-4.80;90.60
4376;DHT22;2202;50.866;12.750;2023-03-01T02:08:42;-4.90;90.60
4376;DHT22;2202;50.866;12.750;2023-03-01T02:11:10;-4.90;90.60
4376;DHT22;2202;50.866;12.750;2023-03-01T02:13:40;-4.90;90.60
4376;DHT22;2202;50.866;12.750;2023-03-01T02:16:09;-4.90;90.60
4376;DHT22;2202;50.866;12.750;2023-03-01T02:18:37;-4.90;90.60
4376;DHT22;2202;50.866;12.750;2023-03-01T02:21:12;-5.00;90.60
4376;DHT22;2202;50.866;12.750;2023-03-01T02:23:43;-5.00;90.60
4376;DHT22;2202;50.866;12.750;2023-03-01T02:26:17;-5.00;90.60
4376;DHT22;2202;50.866;12.750;2023-03-01T02:28:47;-5.00;90.60
4376;DHT22;2202;50.866;12.750;2023-03-01T02:31:17;-5.00;90.50
4376;DHT22;2202;50.866;12.750;2023-03-01T02:34:03;-5.00;90.50
4376;DHT22;2202;50.866;12.750;2023-03-01T02:36:33;-5.10;90.40
4376;DHT22;2202;50.866;12.750;2023-03-01T02:39:03;-5.10;90.40
4376;DHT22;2202;50.866;12.750;2023-03-01T02:41:35;-5.20;90.50
4376;DHT22;2202;50.866;12.750;2023-03-01T02:44:04;-5.20;90.50
4376;DHT22;2202;50.866;12.750;2023-03-01T02:46:31;-5.20;90.60
4376;DHT22;2202;50.866;12.750;2023-03-01T02:48:58;-5.20;90.60
4376;DHT22;2202;50.866;12.750;2023-03-01T02:51:34;-5.30;90.70
4376;DHT22;2202;50.866;12.750;2023-03-01T02:54:11;-5.30;90.70
4376;DHT22;2202;50.866;12.750;2023-03-01T02:56:38;-5.30;90.60
4376;DHT22;2202;50.866;12.750;2023-03-01T02:59:07;-5.30;90.50
4376;DHT22;2202;50.866;12.750;2023-03-01T03:01:35;-5.30;90.50
4376;DHT22;2202;50.866;12.750;2023-03-01T03:04:05;-5.30;90.60
4376;DHT22;2202;50.866;12.750;2023-03-01T03:06:32;-5.30;90.50
4376;DHT22;2202;50.866;12.750;2023-03-01T03:09:00;-5.30;90.60
4376;DHT22;2202;50.866;12.750;2023-03-01T03:11:27;-5.30;90.60
4376;DHT22;2202;50.866;12.750;2023-03-01T03:13:54;-5.40;90.70
4376;DHT22;2202;50.866;12.750;2023-03-01T03:16:23;-5.40;90.70
4376;DHT22;2202;50.866;12.750;2023-03-01T03:18:50;-5.40;90.70
4376;DHT22;2202;50.866;12.750;2023-03-01T03:21:17;-5.40;90.80
4376;DHT22;2202;50.866;12.750;2023-03-01T03:23:44;-5.40;90.80
4376;DHT22;2202;50.866;12.750;2023-03-01T03:26:13;-5.40;90.80
4376;DHT22;2202;50.866;12.750;2023-03-01T03:28:46;-5.50;90.80
4376;DHT22;2202;50.866;12.750;2023-03-01T03:31:12;-5.50;90.90
4376;DHT22;2202;50.866;12.750;2023-03-01T03:33:41;-5.50;91.00
4376;DHT22;2202;50.866;12.750;2023-03-01T03:36:08;-5.50;91.00
4376;DHT22;2202;50.866;12.750;2023-03-01T03:38:38;-5.50;91.00
4376;DHT22;2202;50.866;12.750;2023-03-01T03:41:07;-5.50;91.10
4376;DHT22;2202;50.866;12.750;2023-03-01T03:43:36;-5.50;91.10
4376;DHT22;2202;50.866;12.750;2023-03-01T03:46:04;-5.50;91.10
4376;DHT22;2202;50.866;12.750;2023-03-01T03:48:32;-5.60;91.20
4376;DHT22;2202;50.866;12.750;2023-03-01T03:51:01;-5.50;91.20
4376;DHT22;2202;50.866;12.750;2023-03-01T03:53:31;-5.60;91.10
4376;DHT22;2202;50.866;12.750;2023-03-01T03:55:58;-5.50;91.10
4376;DHT22;2202;50.866;12.750;2023-03-01T03:58:25;-5.60;91.10
4376;DHT22;2202;50.866;12.750;2023-03-01T04:00:53;-5.60;91.00
4376;DHT22;2202;50.866;12.750;2023-03-01T04:03:22;-5.60;91.10
4376;DHT22;2202;50.866;12.750;2023-03-01T04:05:50;-5.60;91.00
4376;DHT22;2202;50.866;12.750;2023-03-01T04:08:19;-5.60;91.00
4376;DHT22;2202;50.866;12.750;2023-03-01T04:10:48;-5.60;91.10
4376;DHT22;2202;50.866;12.750;2023-03-01T04:13:17;-5.60;91.20
4376;DHT22;2202;50.866;12.750;2023-03-01T04:15:45;-5.60;91.20
4376;DHT22;2202;50.866;12.750;2023-03-01T04:18:14;-5.60;91.30
4376;DHT22;2202;50.866;12.750;2023-03-01T04:20:42;-5.60;91.20
4376;DHT22;2202;50.866;12.750;2023-03-01T04:23:12;-5.60;91.10
4376;DHT22;2202;50.866;12.750;2023-03-01T04:25:46;-5.60;91.00
4376;DHT22;2202;50.866;12.750;2023-03-01T04:28:15;-5.60;91.00
4376;DHT22;2202;50.866;12.750;2023-03-01T04:30:42;-5.70;90.90
4376;DHT22;2202;50.866;12.750;2023-03-01T04:33:10;-5.70;90.90
4376;DHT22;2202;50.866;12.750;2023-03-01T04:35:37;-5.70;90.90
4376;DHT22;2202;50.866;12.750;2023-03-01T04:38:05;-5.70;90.90
4376;DHT22;2202;50.866;12.750;2023-03-01T04:40:32;-5.70;91.00
4376;DHT22;2202;50.866;12.750;2023-03-01T04:43:01;-5.70;91.00
4376;DHT22;2202;50.866;12.750;2023-03-01T04:45:28;-5.70;91.00
4376;DHT22;2202;50.866;12.750;2023-03-01T04:47:55;-5.80;91.00
4376;DHT22;2202;50.866;12.750;2023-03-01T04:50:24;-5.80;91.00
4376;DHT22;2202;50.866;12.750;2023-03-01T04:52:51;-5.80;91.00
4376;DHT22;2202;50.866;12.750;2023-03-01T04:55:19;-5.80;91.10
4376;DHT22;2202;50.866;12.750;2023-03-01T04:57:46;-5.80;91.10
4376;DHT22;2202;50.866;12.750;2023-03-01T05:00:15;-5.80;91.10
4376;DHT22;2202;50.866;12.750;2023-03-01T05:02:50;-5.90;91.20
4376;DHT22;2202;50.866;12.750;2023-03-01T05:05:20;-5.90;91.20
4376;DHT22;2202;50.866;12.750;2023-03-01T05:07:54;-5.90;91.30
4376;DHT22;2202;50.866;12.750;2023-03-01T05:10:22;-5.90;91.30
4376;DHT22;2202;50.866;12.750;2023-03-01T05:12:49;-5.90;91.30
4376;DHT22;2202;50.866;12.750;2023-03-01T05:15:19;-5.90;91.30
4376;DHT22;2202;50.866;12.750;2023-03-01T05:17:47;-5.90;91.40
4376;DHT22;2202;50.866;12.750;2023-03-01T05:20:14;-5.90;91.40
4376;DHT22;2202;50.866;12.750;2023-03-01T05:22:41;-5.90;91.40
4376;DHT22;2202;50.866;12.750;2023-03-01T05:25:08;-5.90;91.40
4376;DHT22;2202;50.866;12.750;2023-03-01T05:27:35;-5.90;91.50
4376;DHT22;2202;50.866;12.750;2023-03-01T05:30:03;-5.90;91.40
4376;DHT22;2202;50.866;12.750;2023-03-01T05:32:41;-5.90;91.40
4376;DHT22;2202;50.866;12.750;2023-03-01T05:35:10;-5.90;91.50
4376;DHT22;2202;50.866;12.750;2023-03-01T05:37:42;-5.90;91.60
4376;DHT22;2202;50.866;12.750;2023-03-01T05:40:11;-5.90;91.70
4376;DHT22;2202;50.866;12.750;2023-03-01T05:42:43;-5.90;91.80
4376;DHT22;2202;50.866;12.750;2023-03-01T05:45:10;-5.90;91.80
4376;DHT22;2202;50.866;12.750;2023-03-01T05:47:40;-5.90;91.80
4376;DHT22;2202;50.866;12.750;2023-03-01T05:50:11;-5.80;91.80
4376;DHT22;2202;50.866;12.750;2023-03-01T05:52:38;-5.80;91.80
4376;DHT22;2202;50.866;12.750;2023-03-01T05:55:06;-5.90;91.80
4376;DHT22;2202;50.866;12.750;2023-03-01T05:57:33;-5.90;91.80
4376;DHT22;2202;50.866;12.750;2023-03-01T06:00:00;-5.90;91.80
4376;DHT22;2202;50.866;12.750;2023-03-01T06:02:28;-5.90;91.90
4376;DHT22;2202;50.866;12.750;2023-03-01T06:04:56;-5.90;91.90
4376;DHT22;2202;50.866;12.750;2023-03-01T06:07:23;-5.90;91.90
4376;DHT22;2202;50.866;12.750;2023-03-01T06:09:50;-5.90;91.90
4376;DHT22;2202;50.866;12.750;2023-03-01T06:12:17;-5.90;91.90
4376;DHT22;2202;50.866;12.750;2023-03-01T06:14:45;-5.90;92.10
4376;DHT22;2202;50.866;12.750;2023-03-01T06:17:12;-5.90;92.10
4376;DHT22;2202;50.866;12.750;2023-03-01T06:19:39;-5.80;92.00
4376;DHT22;2202;50.866;12.750;2023-03-01T06:22:07;-5.80;92.00
4376;DHT22;2202;50.866;12.750;2023-03-01T06:24:34;-5.70;92.10
4376;DHT22;2202;50.866;12.750;2023-03-01T06:27:01;-5.70;92.10
4376;DHT22;2202;50.866;12.750;2023-03-01T06:29:28;-5.70;92.00
4376;DHT22;2202;50.866;12.750;2023-03-01T06:31:55;-5.70;92.00
4376;DHT22;2202;50.866;12.750;2023-03-01T06:34:22;-5.70;92.10
4376;DHT22;2202;50.866;12.750;2023-03-01T06:36:49;-5.60;92.20
4376;DHT22;2202;50.866;12.750;2023-03-01T06:39:17;-5.60;92.20
4376;DHT22;2202;50.866;12.750;2023-03-01T06:41:44;-5.50;92.20
4376;DHT22;2202;50.866;12.750;2023-03-01T06:44:11;-5.50;92.20
4376;DHT22;2202;50.866;12.750;2023-03-01T06:46:38;-5.50;92.40
4376;DHT22;2202;50.866;12.750;2023-03-01T06:49:05;-5.20;93.40
4376;DHT22;2202;50.866;12.750;2023-03-01T06:51:35;-4.80;93.90
4376;DHT22;2202;50.866;12.750;2023-03-01T06:54:03;-4.40;94.10
4376;DHT22;2202;50.866;12.750;2023-03-01T06:56:32;-4.10;93.90
4376;DHT22;2202;50.866;12.750;2023-03-01T06:58:59;-3.70;93.10
4376;DHT22;2202;50.866;12.750;2023-03-01T07:01:26;-3.50;92.00
4376;DHT22;2202;50.866;12.750;2023-03-01T07:03:53;-3.30;91.40
4376;DHT22;2202;50.866;12.750;2023-03-01T07:06:20;-3.10;91.00
4376;DHT22;2202;50.866;12.750;2023-03-01T07:08:47;-3.00;90.50
4376;DHT22;2202;50.866;12.750;2023-03-01T07:11:14;-2.90;89.00
4376;DHT22;2202;50.866;12.750;2023-03-01T07:13:43;-2.60;88.80
4376;DHT22;2202;50.866;12.750;2023-03-01T07:16:09;-2.10;88.40
4376;DHT22;2202;50.866;12.750;2023-03-01T07:18:36;-1.50;83.60
4376;DHT22;2202;50.866;12.750;2023-03-01T07:21:07;-0.80;81.40
4376;DHT22;2202;50.866;12.750;2023-03-01T07:23:34;-0.20;78.00
4376;DHT22;2202;50.866;12.750;2023-03-01T07:26:01;0.30;74.80
4376;DHT22;2202;50.866;12.750;2023-03-01T07:28:28;0.60;73.60
4376;DHT22;2202;50.866;12.750;2023-03-01T07:31:00;1.10;69.20
4376;DHT22;2202;50.866;12.750;2023-03-01T07:33:28;1.50;68.00
4376;DHT22;2202;50.866;12.750;2023-03-01T07:35:58;1.90;65.80
4376;DHT22;2202;50.866;12.750;2023-03-01T07:38:25;1.70;62.20
4376;DHT22;2202;50.866;12.750;2023-03-01T07:40:52;1.50;64.00
4376;DHT22;2202;50.866;12.750;2023-03-01T07:43:19;1.60;64.80
4376;DHT22;2202;50.866;12.750;2023-03-01T07:45:46;2.10;63.40
4376;DHT22;2202;50.866;12.750;2023-03-01T07:48:15;2.40;62.00
4376;DHT22;2202;50.866;12.750;2023-03-01T07:50:41;2.30;62.40
4376;DHT22;2202;50.866;12.750;2023-03-01T07:53:08;2.40;62.40
4376;DHT22;2202;50.866;12.750;2023-03-01T07:55:36;2.30;60.10
4376;DHT22;2202;50.866;12.750;2023-03-01T07:58:02;2.70;60.20
4376;DHT22;2202;50.866;12.750;2023-03-01T08:00:30;2.90;59.40
4376;DHT22;2202;50.866;12.750;2023-03-01T08:02:59;2.70;60.10
4376;DHT22;2202;50.866;12.750;2023-03-01T08:05:28;2.40;58.30
4376;DHT22;2202;50.866;12.750;2023-03-01T08:07:55;2.20;60.40
4376;DHT22;2202;50.866;12.750;2023-03-01T08:10:22;1.90;60.80
4376;DHT22;2202;50.866;12.750;2023-03-01T08:12:51;2.00;63.00
4376;DHT22;2202;50.866;12.750;2023-03-01T08:15:18;1.80;63.00
4376;DHT22;2202;50.866;12.750;2023-03-01T08:17:45;1.80;63.00
4376;DHT22;2202;50.866;12.750;2023-03-01T08:20:12;1.90;64.80
4376;DHT22;2202;50.866;12.750;2023-03-01T08:22:40;2.00;64.20
4376;DHT22;2202;50.866;12.750;2023-03-01T08:25:07;1.90;62.40
4376;DHT22;2202;50.866;12.750;2023-03-01T08:27:34;1.90;65.20
4376;DHT22;2202;50.866;12.750;2023-03-01T08:30:01;2.00;64.80
4376;DHT22;2202;50.866;12.750;2023-03-01T08:32:28;2.00;63.40
4376;DHT22;2202;50.866;12.750;2023-03-01T08:34:55;1.90;62.20
4376;DHT22;2202;50.866;12.750;2023-03-01T08:37:22;1.60;63.20
4376;DHT22;2202;50.866;12.750;2023-03-01T08:39:50;1.40;65.40
4376;DHT22;2202;50.866;12.750;2023-03-01T08:42:17;1.30;65.80
4376;DHT22;2202;50.866;12.750;2023-03-01T08:44:44;1.40;66.00
4376;DHT22;2202;50.866;12.750;2023-03-01T08:47:11;1.50;67.80
4376;DHT22;2202;50.866;12.750;2023-03-01T08:49:38;1.80;66.00
4376;DHT22;2202;50.866;12.750;2023-03-01T08:52:05;1.80;63.40
4376;DHT22;2202;50.866;12.750;2023-03-01T08:54:31;1.70;65.00
4376;DHT22;2202;50.866;12.750;2023-03-01T08:57:01;1.70;64.80
4376;DHT22;2202;50.866;12.750;2023-03-01T08:59:28;1.70;64.80
4376;DHT22;2202;50.866;12.750;2023-03-01T09:01:55;1.70;65.40
4376;DHT22;2202;50.866;12.750;2023-03-01T09:04:22;1.60;65.40
4376;DHT22;2202;50.866;12.750;2023-03-01T09:06:49;1.50;65.40
4376;DHT22;2202;50.866;12.750;2023-03-01T09:09:17;1.50;66.40
4376;DHT22;2202;50.866;12.750;2023-03-01T09:11:45;1.50;65.20
4376;DHT22;2202;50.866;12.750;2023-03-01T09:14:14;1.50;66.00
4376;DHT22;2202;50.866;12.750;2023-03-01T09:16:41;1.70;66.80
4376;DHT22;2202;50.866;12.750;2023-03-01T09:19:08;1.70;65.20
4376;DHT22;2202;50.866;12.750;2023-03-01T09:21:35;1.60;65.00
4376;DHT22;2202;50.866;12.750;2023-03-01T09:24:02;1.40;66.00
4376;DHT22;2202;50.866;12.750;2023-03-01T09:26:30;1.30;66.00
4376;DHT22;2202;50.866;12.750;2023-03-01T09:28:57;1.30;67.20
4376;DHT22;2202;50.866;12.750;2023-03-01T09:31:25;1.30;66.80
4376;DHT22;2202;50.866;12.750;2023-03-01T09:33:52;1.40;66.20
4376;DHT22;2202;50.866;12.750;2023-03-01T09:36:23;1.40;65.80
4376;DHT22;2202;50.866;12.750;2023-03-01T09:38:51;1.30;66.00
4376;DHT22;2202;50.866;12.750;2023-03-01T09:41:35;1.40;68.20
4376;DHT22;2202;50.866;12.750;2023-03-01T09:44:08;1.30;66.40
4376;DHT22;2202;50.866;12.750;2023-03-01T09:46:42;1.30;68.60
4376;DHT22;2202;50.866;12.750;2023-03-01T09:49:12;1.40;69.80
4376;DHT22;2202;50.866;12.750;2023-03-01T09:51:43;1.50;67.00
4376;DHT22;2202;50.866;12.750;2023-03-01T09:54:12;1.40;66.80
4376;DHT22;2202;50.866;12.750;2023-03-01T09:56:41;1.40;66.20
4376;DHT22;2202;50.866;12.750;2023-03-01T09:59:18;1.50;66.60
4376;DHT22;2202;50.866;12.750;2023-03-01T10:01:57;1.40;65.40
4376;DHT22;2202;50.866;12.750;2023-03-01T10:04:36;1.40;67.40
4376;DHT22;2202;50.866;12.750;2023-03-01T10:07:21;1.50;69.00
4376;DHT22;2202;50.866;12.750;2023-03-01T10:09:52;1.70;66.00
4376;DHT22;2202;50.866;12.750;2023-03-01T10:12:22;1.70;64.80
4376;DHT22;2202;50.866;12.750;2023-03-01T10:14:56;1.80;65.80
4376;DHT22;2202;50.866;12.750;2023-03-01T10:17:30;1.70;64.20
4376;DHT22;2202;50.866;12.750;2023-03-01T10:20:19;1.80;65.40
4376;DHT22;2202;50.866;12.750;2023-03-01T10:22:47;1.90;67.60
4376;DHT22;2202;50.866;12.750;2023-03-01T10:25:24;2.00;65.60
4376;DHT22;2202;50.866;12.750;2023-03-01T10:27:59;2.00;66.00
4376;DHT22;2202;50.866;12.750;2023-03-01T10:30:34;2.10;65.00
4376;DHT22;2202;50.866;12.750;2023-03-01T10:33:13;2.10;65.20
4376;DHT22;2202;50.866;12.750;2023-03-01T10:35:42;2.20;66.20
4376;DHT22;2202;50.866;12.750;2023-03-01T10:38:11;2.40;63.80
4376;DHT22;2202;50.866;12.750;2023-03-01T10:40:50;2.40;63.00
4376;DHT22;2202;50.866;12.750;2023-03-01T10:43:18;2.40;64.20
4376;DHT22;2202;50.866;12.750;2023-03-01T10:45:45;2.50;63.60
4376;DHT22;2202;50.866;12.750;2023-03-01T10:48:15;2.50;61.60
4376;DHT22;2202;50.866;12.750;2023-03-01T10:50:44;2.50;64.60
4376;DHT22;2202;50.866;12.750;2023-03-01T10:53:22;2.50;63.60
4376;DHT22;2202;50.866;12.750;2023-03-01T10:56:01;2.50;62.60
4376;DHT22;2202;50.866;12.750;2023-03-01T10:58:30;2.40;60.40
4376;DHT22;2202;50.866;12.750;2023-03-01T11:00:59;2.50;62.80
4376;DHT22;2202;50.866;12.750;2023-03-01T11:03:29;2.60;62.40
4376;DHT22;2202;50.866;12.750;2023-03-01T11:06:04;2.60;63.60
4376;DHT22;2202;50.866;12.750;2023-03-01T11:08:37;2.70;61.80
4376;DHT22;2202;50.866;12.750;2023-03-01T11:11:13;2.80;62.20
4376;DHT22;2202;50.866;12.750;2023-03-01T11:13:50;3.00;61.00
4376;DHT22;2202;50.866;12.750;2023-03-01T11:16:31;3.00;61.60
4376;DHT22;2202;50.866;12.750;2023-03-01T11:19:15;3.00;63.00
4376;DHT22;2202;50.866;12.750;2023-03-01T11:21:47;2.90;64.00
4376;DHT22;2202;50.866;12.750;2023-03-01T11:24:17;3.20;62.40
4376;DHT22;2202;50.866;12.750;2023-03-01T11:26:49;3.30;62.60
4376;DHT22;2202;50.866;12.750;2023-03-01T11:29:26;3.40;62.60
4376;DHT22;2202;50.866;12.750;2023-03-01T11:31:57;3.50;60.60
4376;DHT22;2202;50.866;12.750;2023-03-01T11:34:36;3.50;59.80
4376;DHT22;2202;50.866;12.750;2023-03-01T11:37:12;3.40;59.20
4376;DHT22;2202;50.866;12.750;2023-03-01T11:39:45;3.30;59.40
4376;DHT22;2202;50.866;12.750;2023-03-01T11:42:17;3.30;59.90
4376;DHT22;2202;50.866;12.750;2023-03-01T11:44:47;3.40;62.80
4376;DHT22;2202;50.866;12.750;2023-03-01T11:47:28;3.50;61.40
4376;DHT22;2202;50.866;12.750;2023-03-01T11:50:12;3.50;58.00
4376;DHT22;2202;50.866;12.750;2023-03-01T11:52:52;3.40;58.70
4376;DHT22;2202;50.866;12.750;2023-03-01T11:55:32;3.50;59.00
4376;DHT22;2202;50.866;12.750;2023-03-01T11:58:19;3.50;59.20
4376;DHT22;2202;50.866;12.750;2023-03-01T12:01:08;3.60;58.50
4376;DHT22;2202;50.866;12.750;2023-03-01T12:04:05;3.50;58.00
4376;DHT22;2202;50.866;12.750;2023-03-01T12:06:49;3.50;58.20
4376;DHT22;2202;50.866;12.750;2023-03-01T12:09:29;3.60;58.70
4376;DHT22;2202;50.866;12.750;2023-03-01T12:12:22;3.70;59.00
4376;DHT22;2202;50.866;12.750;2023-03-01T12:15:11;3.80;57.80
4376;DHT22;2202;50.866;12.750;2023-03-01T12:20:53;3.80;57.80
4376;DHT22;2202;50.866;12.750;2023-03-01T12:23:46;4.00;58.20
4376;DHT22;2202;50.866;12.750;2023-03-01T12:26:22;4.00;58.90
4376;DHT22;2202;50.866;12.750;2023-03-01T12:29:07;4.10;60.10
4376;DHT22;2202;50.866;12.750;2023-03-01T12:31:48;4.20;62.20
4376;DHT22;2202;50.866;12.750;2023-03-01T12:34:38;4.00;63.40
4376;DHT22;2202;50.866;12.750;2023-03-01T12:37:19;3.80;64.80
4376;DHT22;2202;50.866;12.750;2023-03-01T12:39:59;3.70;65.60
4376;DHT22;2202;50.866;12.750;2023-03-01T12:42:35;3.70;65.00
4376;DHT22;2202;50.866;12.750;2023-03-01T12:45:31;3.70;65.00
4376;DHT22;2202;50.866;12.750;2023-03-01T12:48:09;3.70;66.80
4376;DHT22;2202;50.866;12.750;2023-03-01T12:50:42;3.80;65.60
4376;DHT22;2202;50.866;12.750;2023-03-01T12:53:22;3.90;65.80
4376;DHT22;2202;50.866;12.750;2023-03-01T12:55:53;4.00;65.80
4376;DHT22;2202;50.866;12.750;2023-03-01T12:58:26;4.10;63.00
4376;DHT22;2202;50.866;12.750;2023-03-01T13:01:08;4.20;62.20
4376;DHT22;2202;50.866;12.750;2023-03-01T13:03:55;4.10;59.40
4376;DHT22;2202;50.866;12.750;2023-03-01T13:06:29;3.90;59.90
4376;DHT22;2202;50.866;12.750;2023-03-01T13:09:05;3.90;62.80
4376;DHT22;2202;50.866;12.750;2023-03-01T13:11:40;3.90;62.20
4376;DHT22;2202;50.866;12.750;2023-03-01T13:14:35;4.00;62.60
4376;DHT22;2202;50.866;12.750;2023-03-01T13:17:02;4.10;62.00
4376;DHT22;2202;50.866;12.750;2023-03-01T13:19:29;4.10;62.60
4376;DHT22;2202;50.866;12.750;2023-03-01T13:21:57;4.30;62.40
4376;DHT22;2202;50.866;12.750;2023-03-01T13:24:29;4.40;60.40
4376;DHT22;2202;50.866;12.750;2023-03-01T13:27:22;4.30;60.40
4376;DHT22;2202;50.866;12.750;2023-03-01T13:29:55;4.20;61.40
4376;DHT22;2202;50.866;12.750;2023-03-01T13:32:26;4.20;61.00
4376;DHT22;2202;50.866;12.750;2023-03-01T13:34:58;4.20;61.80
4376;DHT22;2202;50.866;12.750;2023-03-01T13:37:31;4.20;62.00
4376;DHT22;2202;50.866;12.750;2023-03-01T13:40:00;4.20;62.40
4376;DHT22;2202;50.866;12.750;2023-03-01T13:42:42;4.30;63.80
4376;DHT22;2202;50.866;12.750;2023-03-01T13:45:21;4.40;61.40
4376;DHT22;2202;50.866;12.750;2023-03-01T13:47:53;4.50;59.00
4376;DHT22;2202;50.866;12.750;2023-03-01T13:50:25;4.30;58.70
4376;DHT22;2202;50.866;12.750;2023-03-01T13:52:54;4.20;59.40
4376;DHT22;2202;50.866;12.750;2023-03-01T13:55:26;4.10;59.80
4376;DHT22;2202;50.866;12.750;2023-03-01T13:57:57;4.10;61.40
4376;DHT22;2202;50.866;12.750;2023-03-01T14:00:35;4.20;59.90
4376;DHT22;2202;50.866;12.750;2023-03-01T14:03:05;4.20;59.00
4376;DHT22;2202;50.866;12.750;2023-03-01T14:05:33;4.20;58.00
4376;DHT22;2202;50.866;12.750;2023-03-01T14:08:01;4.10;58.70
4376;DHT22;2202;50.866;12.750;2023-03-01T14:10:35;4.20;60.20
4376;DHT22;2202;50.866;12.750;2023-03-01T14:13:18;4.20;61.00
4376;DHT22;2202;50.866;12.750;2023-03-01T14:15:54;4.40;60.40
4376;DHT22;2202;50.866;12.750;2023-03-01T14:18:25;4.50;58.50
4376;DHT22;2202;50.866;12.750;2023-03-01T14:20:54;4.60;58.70
4376;DHT22;2202;50.866;12.750;2023-03-01T14:23:22;4.60;57.60
4376;DHT22;2202;50.866;12.750;2023-03-01T14:25:51;4.60;55.30
4376;DHT22;2202;50.866;12.750;2023-03-01T14:28:22;4.60;55.90
4376;DHT22;2202;50.866;12.750;2023-03-01T14:30:51;4.60;55.00
4376;DHT22;2202;50.866;12.750;2023-03-01T14:33:21;4.50;55.50
4376;DHT22;2202;50.866;12.750;2023-03-01T14:35:58;4.40;56.00
4376;DHT22;2202;50.866;12.750;2023-03-01T14:38:31;4.50;56.70
4376;DHT22;2202;50.866;12.750;2023-03-01T14:41:01;4.50;55.30
4376;DHT22;2202;50.866;12.750;2023-03-01T14:43:31;4.60;56.40
4376;DHT22;2202;50.866;12.750;2023-03-01T14:45:58;4.70;55.70
4376;DHT22;2202;50.866;12.750;2023-03-01T14:48:26;4.70;56.20
4376;DHT22;2202;50.866;12.750;2023-03-01T14:50:54;4.70;56.40
4376;DHT22;2202;50.866;12.750;2023-03-01T14:53:24;4.80;56.90
4376;DHT22;2202;50.866;12.750;2023-03-01T14:55:53;4.60;55.30
4376;DHT22;2202;50.866;12.750;2023-03-01T14:58:24;4.50;56.90
4376;DHT22;2202;50.866;12.750;2023-03-01T15:00:54;4.60;56.90
4376;DHT22;2202;50.866;12.750;2023-03-01T15:03:26;4.60;56.60
4376;DHT22;2202;50.866;12.750;2023-03-01T15:05:54;4.50;56.70
4376;DHT22;2202;50.866;12.750;2023-03-01T15:08:24;4.60;57.10
4376;DHT22;2202;50.866;12.750;2023-03-01T15:11:00;4.60;57.60
4376;DHT22;2202;50.866;12.750;2023-03-01T15:13:30;4.60;57.10
4376;DHT22;2202;50.866;12.750;2023-03-01T15:16:05;4.60;56.60
4376;DHT22;2202;50.866;12.750;2023-03-01T15:18:32;4.60;55.30
4376;DHT22;2202;50.866;12.750;2023-03-01T15:21:06;4.60;55.00
4376;DHT22;2202;50.866;12.750;2023-03-01T15:23:36;4.50;54.40
4376;DHT22;2202;50.866;12.750;2023-03-01T15:26:04;4.40;55.90
4376;DHT22;2202;50.866;12.750;2023-03-01T15:28:33;4.40;55.50
4376;DHT22;2202;50.866;12.750;2023-03-01T15:31:04;4.50;55.10
4376;DHT22;2202;50.866;12.750;2023-03-01T15:33:37;4.50;55.00
4376;DHT22;2202;50.866;12.750;2023-03-01T15:36:33;4.50;55.90
4376;DHT22;2202;50.866;12.750;2023-03-01T15:39:02;4.50;55.10
4376;DHT22;2202;50.866;12.750;2023-03-01T15:41:31;4.50;54.30
4376;DHT22;2202;50.866;12.750;2023-03-01T15:43:59;4.40;52.50
4376;DHT22;2202;50.866;12.750;2023-03-01T15:46:28;4.40;53.50
4376;DHT22;2202;50.866;12.750;2023-03-01T15:48:58;4.60;52.80
4376;DHT22;2202;50.866;12.750;2023-03-01T15:51:34;4.60;50.70
4376;DHT22;2202;50.866;12.750;2023-03-01T15:54:06;4.60;51.90
4376;DHT22;2202;50.866;12.750;2023-03-01T15:56:36;4.70;51.10
4376;DHT22;2202;50.866;12.750;2023-03-01T15:59:03;4.80;50.70
4376;DHT22;2202;50.866;12.750;2023-03-01T16:01:32;4.50;50.70
4376;DHT22;2202;50.866;12.750;2023-03-01T16:04:00;4.50;50.50
4376;DHT22;2202;50.866;12.750;2023-03-01T16:06:27;4.40;51.20
4376;DHT22;2202;50.866;12.750;2023-03-01T16:08:55;4.30;51.60
4376;DHT22;2202;50.866;12.750;2023-03-01T16:11:22;4.10;52.50
4376;DHT22;2202;50.866;12.750;2023-03-01T16:13:49;4.00;53.00
4376;DHT22;2202;50.866;12.750;2023-03-01T16:16:16;3.90;53.90
4376;DHT22;2202;50.866;12.750;2023-03-01T16:18:46;3.80;54.10